createdAt,value
2023-03-11T00:00:57.362Z,79.97
2023-03-11T00:01:59.485Z,79.84
2023-03-11T00:03:06.745Z,79.76
2023-03-11T00:04:08.383Z,79.81
2023-03-11T00:05:17.092Z,79.79
2023-03-11T00:06:28.760Z,79.82
2023-03-11T00:07:31.358Z,79.74
2023-03-11T00:08:34.222Z,79.69
2023-03-11T00:09:36.174Z,79.89
2023-03-11T00:10:42.094Z,79.90
2023-03-11T00:11:44.624Z,79.72
2023-03-11T00:12:46.241Z,79.59
2023-03-11T00:13:58.871Z,79.66
2023-03-11T00:15:00.448Z,79.75
2023-03-11T00:16:03.002Z,79.79
2023-03-11T00:17:04.640Z,79.76
2023-03-11T00:18:07.629Z,79.36
2023-03-11T00:19:10.293Z,79.39
2023-03-11T00:20:18.989Z,79.34
2023-03-11T00:21:21.664Z,79.46
2023-03-11T00:22:23.304Z,79.56
2023-03-11T00:23:27.505Z,79.16
2023-03-11T00:24:29.070Z,79.51
2023-03-11T00:25:33.443Z,79.22
2023-03-11T00:26:36.375Z,79.49
2023-03-11T00:27:38.984Z,79.11
2023-03-11T00:28:41.575Z,79.14
2023-03-11T00:29:43.148Z,79.02
2023-03-11T00:30:47.427Z,78.95
2023-03-11T00:31:49.128Z,79.05
2023-03-11T00:32:53.656Z,79.09
2023-03-11T00:33:57.223Z,79.15
2023-03-11T00:35:00.367Z,79.09
2023-03-11T00:36:02.269Z,79.05
2023-03-11T00:37:05.270Z,79.15
2023-03-11T00:38:08.990Z,78.87
2023-03-11T00:39:11.507Z,79.05
2023-03-11T00:40:14.868Z,78.79
2023-03-11T00:41:17.808Z,78.84
2023-03-11T00:42:20.742Z,78.90
2023-03-11T00:43:23.281Z,78.74
2023-03-11T00:44:24.951Z,78.87
2023-03-11T00:45:28.460Z,78.96
2023-03-11T00:46:31.449Z,78.80
2023-03-11T00:47:34.201Z,78.91
2023-03-11T00:48:36.592Z,78.85
2023-03-11T00:49:39.839Z,78.75
2023-03-11T00:50:42.034Z,78.83
2023-03-11T00:51:44.815Z,78.90
2023-03-11T00:52:47.704Z,78.87
2023-03-11T00:53:50.386Z,78.75
2023-03-11T00:54:52.072Z,78.69
2023-03-11T00:55:54.651Z,78.89
2023-03-11T00:56:56.327Z,78.73
2023-03-11T00:58:02.670Z,78.71
2023-03-11T00:59:05.322Z,78.56
2023-03-11T01:00:11.526Z,78.69
2023-03-11T01:01:28.766Z,78.66
2023-03-11T01:02:30.350Z,78.57
2023-03-11T01:03:32.909Z,78.57
2023-03-11T01:04:34.537Z,78.61
2023-03-11T01:05:37.168Z,78.75
2023-03-11T01:06:45.574Z,78.43
2023-03-11T01:07:47.684Z,78.53
2023-03-11T01:08:50.250Z,78.52
2023-03-11T01:09:51.885Z,78.49
2023-03-11T01:10:55.264Z,78.54
2023-03-11T01:11:57.071Z,78.48
2023-03-11T01:13:01.332Z,78.39
2023-03-11T01:14:04.233Z,78.38
2023-03-11T01:15:08.609Z,78.49
2023-03-11T01:16:10.146Z,78.38
2023-03-11T01:17:12.730Z,78.51
2023-03-11T01:18:14.303Z,78.16
2023-03-11T01:19:17.264Z,78.25
2023-03-11T01:20:19.155Z,78.14
2023-03-11T01:21:21.680Z,78.34
2023-03-11T01:22:23.384Z,78.05
2023-03-11T01:23:26.050Z,78.33
2023-03-11T01:24:27.644Z,78.33
2023-03-11T01:25:30.611Z,78.24
2023-03-11T01:26:32.256Z,78.35
2023-03-11T01:27:34.778Z,78.34
2023-03-11T01:28:38.630Z,78.21
2023-03-11T01:29:40.187Z,77.98
2023-03-11T01:30:43.725Z,78.20
2023-03-11T01:31:45.332Z,78.04
2023-03-11T01:32:47.923Z,77.96
2023-03-11T01:33:49.475Z,78.27
2023-03-11T01:34:52.031Z,78.10
2023-03-11T01:35:53.656Z,78.24
2023-03-11T01:36:56.190Z,78.27
2023-03-11T01:37:59.841Z,78.16
2023-03-11T01:39:01.408Z,78.12
2023-03-11T01:40:04.709Z,78.05
2023-03-11T01:41:06.468Z,78.08
2023-03-11T01:42:08.982Z,78.00
2023-03-11T01:43:41.581Z,78.09
2023-03-11T01:44:43.213Z,78.03
2023-03-11T01:46:08.627Z,78.02
2023-03-11T01:47:37.061Z,77.77
2023-03-11T01:48:40.046Z,77.93
2023-03-11T01:49:42.062Z,77.94
2023-03-11T01:50:47.627Z,78.10
2023-03-11T01:51:52.060Z,78.06
2023-03-11T01:52:54.820Z,78.03
2023-03-11T01:53:59.564Z,78.00
2023-03-11T01:55:02.126Z,78.16
2023-03-11T01:56:05.663Z,78.09
2023-03-11T01:57:13.152Z,77.99
2023-03-11T01:58:17.938Z,77.68
2023-03-11T01:59:26.218Z,78.13
2023-03-11T02:00:28.242Z,77.81
2023-03-11T02:01:33.074Z,77.75
2023-03-11T02:02:36.917Z,78.05
2023-03-11T02:03:41.628Z,77.86
2023-03-11T02:04:43.281Z,77.98
2023-03-11T02:05:46.851Z,77.93
2023-03-11T02:06:49.605Z,77.95
2023-03-11T02:07:54.621Z,78.16
2023-03-11T02:08:56.257Z,78.16
2023-03-11T02:09:58.774Z,77.99
2023-03-11T02:11:02.491Z,77.93
2023-03-11T02:12:09.839Z,78.06
2023-03-11T02:13:12.144Z,77.88
2023-03-11T02:14:14.884Z,77.82
2023-03-11T02:15:18.253Z,77.79
2023-03-11T02:16:21.080Z,77.79
2023-03-11T02:17:22.835Z,77.81
2023-03-11T02:18:25.482Z,77.79
2023-03-11T02:19:36.726Z,77.90
2023-03-11T02:20:47.079Z,77.77
2023-03-11T02:21:49.823Z,77.83
2023-03-11T02:22:56.997Z,77.83
2023-03-11T02:24:08.980Z,77.88
2023-03-11T02:25:22.028Z,77.73
2023-03-11T02:26:30.672Z,77.60
2023-03-11T02:27:38.055Z,77.83
2023-03-11T02:28:40.770Z,77.72
2023-03-11T02:29:45.759Z,77.95
2023-03-11T02:30:48.418Z,77.70
2023-03-11T02:31:50.974Z,77.38
2023-03-11T02:32:53.503Z,77.40
2023-03-11T02:33:57.536Z,77.71
2023-03-11T02:34:59.201Z,77.52
2023-03-11T02:36:01.876Z,77.46
2023-03-11T02:37:06.022Z,77.46
2023-03-11T02:38:08.560Z,77.45
2023-03-11T02:39:10.402Z,77.51
2023-03-11T02:40:36.576Z,77.33
2023-03-11T02:41:41.377Z,77.51
2023-03-11T02:42:44.288Z,77.20
2023-03-11T02:43:47.961Z,77.24
2023-03-11T02:44:56.607Z,77.02
2023-03-11T02:45:59.761Z,77.35
2023-03-11T02:47:01.879Z,77.04
2023-03-11T02:48:05.185Z,77.01
2023-03-11T02:49:07.671Z,77.21
2023-03-11T02:50:13.694Z,77.20
2023-03-11T02:51:15.340Z,77.14
2023-03-11T02:52:18.676Z,77.09
2023-03-11T02:53:20.524Z,76.79
2023-03-11T02:54:30.915Z,77.05
2023-03-11T02:55:33.197Z,76.93
2023-03-11T02:56:35.747Z,76.84
2023-03-11T02:57:37.430Z,76.51
2023-03-11T02:58:41.460Z,76.63
2023-03-11T02:59:43.042Z,77.08
2023-03-11T03:00:45.678Z,77.11
2023-03-11T03:01:50.195Z,76.93
2023-03-11T03:02:54.001Z,76.75
2023-03-11T03:03:55.699Z,76.68
2023-03-11T03:04:58.217Z,76.82
2023-03-11T03:05:59.799Z,76.67
2023-03-11T03:07:02.279Z,76.46
2023-03-11T03:08:04.120Z,76.52
2023-03-11T03:09:06.688Z,76.71
2023-03-11T03:10:09.708Z,76.40
2023-03-11T03:11:12.222Z,76.14
2023-03-11T03:12:13.771Z,76.34
2023-03-11T03:13:16.310Z,76.37
2023-03-11T03:14:19.246Z,76.11
2023-03-11T03:15:21.749Z,76.12
2023-03-11T03:16:24.558Z,76.23
2023-03-11T03:17:26.221Z,75.91
2023-03-11T03:18:28.939Z,75.99
2023-03-11T03:19:30.525Z,76.22
2023-03-11T03:20:33.124Z,75.93
2023-03-11T03:21:34.666Z,76.05
2023-03-11T03:22:37.166Z,75.88
2023-03-11T03:23:39.680Z,75.90
2023-03-11T03:24:41.199Z,75.79
2023-03-11T03:25:44.478Z,75.58
2023-03-11T03:26:46.054Z,75.76
2023-03-11T03:27:48.644Z,75.46
2023-03-11T03:28:50.436Z,75.64
2023-03-11T03:29:54.560Z,75.66
2023-03-11T03:30:56.453Z,75.78
2023-03-11T03:31:59.115Z,75.67
2023-03-11T03:33:00.820Z,75.61
2023-03-11T03:34:03.348Z,75.21
2023-03-11T03:35:06.225Z,75.09
2023-03-11T03:36:10.770Z,75.69
2023-03-11T03:37:12.357Z,75.60
2023-03-11T03:38:15.127Z,75.27
2023-03-11T03:39:18.589Z,75.41
2023-03-11T03:40:21.081Z,75.37
2023-03-11T03:41:23.090Z,75.72
2023-03-11T03:42:25.994Z,74.91
2023-03-11T03:43:28.746Z,75.33
2023-03-11T03:44:30.700Z,75.03
2023-03-11T03:45:34.576Z,75.34
2023-03-11T03:46:36.205Z,75.24
2023-03-11T03:47:38.793Z,75.22
2023-03-11T03:48:40.341Z,75.41
2023-03-11T03:49:42.868Z,75.08
2023-03-11T03:50:44.374Z,74.85
2023-03-11T03:51:46.910Z,75.11
2023-03-11T03:52:52.168Z,75.18
2023-03-11T03:53:54.633Z,75.05
2023-03-11T03:54:56.215Z,75.16
2023-03-11T03:55:58.748Z,75.25
2023-03-11T03:57:00.374Z,75.33
2023-03-11T03:58:02.862Z,74.98
2023-03-11T03:59:04.433Z,75.05
2023-03-11T04:00:09.905Z,74.97
2023-03-11T04:01:26.037Z,75.03
2023-03-11T04:02:28.807Z,74.95
2023-03-11T04:03:31.381Z,75.24
2023-03-11T04:04:34.220Z,75.00
2023-03-11T04:05:36.534Z,75.02
2023-03-11T04:06:39.052Z,74.93
2023-03-11T04:07:40.905Z,74.82
2023-03-11T04:08:43.699Z,74.84
2023-03-11T04:09:45.347Z,74.65
2023-03-11T04:10:57.605Z,74.53
2023-03-11T04:11:59.894Z,75.04
2023-03-11T04:13:02.566Z,75.02
2023-03-11T04:14:05.002Z,75.19
2023-03-11T04:15:08.734Z,74.58
2023-03-11T04:16:16.045Z,74.83
2023-03-11T04:17:19.973Z,75.00
2023-03-11T04:18:22.787Z,75.01
2023-03-11T04:19:25.936Z,74.83
2023-03-11T04:20:27.463Z,74.73
2023-03-11T04:21:29.932Z,74.95
2023-03-11T04:22:31.546Z,74.80
2023-03-11T04:23:34.575Z,75.29
2023-03-11T04:24:36.202Z,74.66
2023-03-11T04:25:38.804Z,75.02
2023-03-11T04:26:40.377Z,75.06
2023-03-11T04:27:45.917Z,74.74
2023-03-11T04:28:47.495Z,74.89
2023-03-11T04:29:50.005Z,74.81
2023-03-11T04:30:51.590Z,74.79
2023-03-11T04:31:54.383Z,74.95
2023-03-11T04:32:57.258Z,74.82
2023-03-11T04:33:59.762Z,75.04
2023-03-11T04:35:01.311Z,74.92
2023-03-11T04:36:06.979Z,74.62
2023-03-11T04:37:08.813Z,74.62
2023-03-11T04:38:11.471Z,74.60
2023-03-11T04:39:14.635Z,74.69
2023-03-11T04:40:17.997Z,74.64
2023-03-11T04:41:19.603Z,74.62
2023-03-11T04:42:22.814Z,74.47
2023-03-11T04:43:24.322Z,74.68
2023-03-11T04:44:27.168Z,74.68
2023-03-11T04:45:28.734Z,74.81
2023-03-11T04:46:31.328Z,74.82
2023-03-11T04:47:33.397Z,74.35
2023-03-11T04:48:37.309Z,74.28
2023-03-11T04:49:38.846Z,74.58
2023-03-11T04:50:41.531Z,74.71
2023-03-11T04:51:43.523Z,75.03
2023-03-11T04:52:46.451Z,74.79
2023-03-11T04:53:47.971Z,74.11
2023-03-11T04:54:50.500Z,74.46
2023-03-11T04:55:53.715Z,74.65
2023-03-11T04:56:56.219Z,74.12
2023-03-11T04:57:57.780Z,74.86
2023-03-11T04:59:00.445Z,74.53
2023-03-11T05:00:02.158Z,74.46
2023-03-11T05:01:11.431Z,74.44
2023-03-11T05:02:13.152Z,74.14
2023-03-11T05:03:16.158Z,74.48
2023-03-11T05:04:19.111Z,75.04
2023-03-11T05:05:22.067Z,74.37
2023-03-11T05:06:24.304Z,74.79
2023-03-11T05:07:26.818Z,74.76
2023-03-11T05:08:28.459Z,74.50
2023-03-11T05:09:30.940Z,74.58
2023-03-11T05:10:32.743Z,74.49
2023-03-11T05:11:37.081Z,74.51
2023-03-11T05:12:38.610Z,74.69
2023-03-11T05:13:41.142Z,74.48
2023-03-11T05:14:42.697Z,75.09
2023-03-11T05:15:45.955Z,74.22
2023-03-11T05:16:47.652Z,74.63
2023-03-11T05:17:50.204Z,74.66
2023-03-11T05:18:51.730Z,74.21
2023-03-11T05:19:55.562Z,74.59
2023-03-11T05:21:07.116Z,74.87
2023-03-11T05:22:09.678Z,74.62
2023-03-11T05:23:11.388Z,74.62
2023-03-11T05:24:13.915Z,74.50
2023-03-11T05:25:15.583Z,74.66
2023-03-11T05:26:18.073Z,74.46
2023-03-11T05:27:20.994Z,74.67
2023-03-11T05:28:23.784Z,74.19
2023-03-11T05:29:26.049Z,74.36
2023-03-11T05:30:28.570Z,74.29
2023-03-11T05:31:30.135Z,74.31
2023-03-11T05:32:32.755Z,74.25
2023-03-11T05:33:35.729Z,74.26
2023-03-11T05:34:38.590Z,74.37
2023-03-11T05:35:45.431Z,74.16
2023-03-11T05:36:48.081Z,73.96
2023-03-11T05:37:49.740Z,74.02
2023-03-11T05:38:53.220Z,74.11
2023-03-11T05:39:55.053Z,74.36
2023-03-11T05:40:57.521Z,74.20
2023-03-11T05:41:59.061Z,74.01
2023-03-11T05:43:01.602Z,74.35
2023-03-11T05:44:03.970Z,73.91
2023-03-11T05:45:07.094Z,73.67
2023-03-11T05:46:08.819Z,73.77
2023-03-11T05:47:11.607Z,73.75
2023-03-11T05:48:17.105Z,73.90
2023-03-11T05:49:21.236Z,73.79
2023-03-11T05:50:22.791Z,73.90
2023-03-11T05:51:27.002Z,73.74
2023-03-11T05:52:30.464Z,73.92
2023-03-11T05:53:32.973Z,73.58
2023-03-11T05:54:34.602Z,73.79
2023-03-11T05:55:37.103Z,73.76
2023-03-11T05:56:38.613Z,73.53
2023-03-11T05:57:41.404Z,73.55
2023-03-11T05:58:42.939Z,73.64
2023-03-11T05:59:45.632Z,73.44
2023-03-11T06:00:47.211Z,73.67
2023-03-11T06:01:52.594Z,73.76
2023-03-11T06:02:55.207Z,73.82
2023-03-11T06:03:56.798Z,73.75
2023-03-11T06:04:59.488Z,73.67
2023-03-11T06:06:01.051Z,73.71
2023-03-11T06:07:05.317Z,73.75
2023-03-11T06:08:06.999Z,73.38
2023-03-11T06:09:13.119Z,73.41
2023-03-11T06:10:14.782Z,73.56
2023-03-11T06:11:18.227Z,73.80
2023-03-11T06:12:19.773Z,73.54
2023-03-11T06:13:22.289Z,73.34
2023-03-11T06:14:23.874Z,73.23
2023-03-11T06:15:26.593Z,73.23
2023-03-11T06:16:28.270Z,73.32
2023-03-11T06:17:30.831Z,73.24
2023-03-11T06:18:32.390Z,73.53
2023-03-11T06:19:34.949Z,73.18
2023-03-11T06:20:37.736Z,73.47
2023-03-11T06:21:40.418Z,73.48
2023-03-11T06:22:43.843Z,73.38
2023-03-11T06:23:46.958Z,73.73
2023-03-11T06:24:48.568Z,73.87
2023-03-11T06:25:56.573Z,73.73
2023-03-11T06:26:58.301Z,73.63
2023-03-11T06:28:00.830Z,73.49
2023-03-11T06:29:02.385Z,73.35
2023-03-11T06:30:05.757Z,73.57
2023-03-11T06:31:08.231Z,73.63
2023-03-11T06:32:10.916Z,73.45
2023-03-11T06:33:14.315Z,73.50
2023-03-11T06:34:16.883Z,73.46
2023-03-11T06:35:18.963Z,73.50
2023-03-11T06:36:21.802Z,73.61
2023-03-11T06:37:25.502Z,73.43
2023-03-11T06:38:28.561Z,73.61
2023-03-11T06:39:31.065Z,73.22
2023-03-11T06:40:33.385Z,73.09
2023-03-11T06:41:36.410Z,73.31
2023-03-11T06:42:37.978Z,73.15
2023-03-11T06:43:41.180Z,73.13
2023-03-11T06:44:42.716Z,73.08
2023-03-11T06:45:45.526Z,72.83
2023-03-11T06:46:47.120Z,72.78
2023-03-11T06:47:49.700Z,73.09
2023-03-11T06:49:01.772Z,73.00
2023-03-11T06:50:06.574Z,72.76
2023-03-11T06:51:10.891Z,72.69
2023-03-11T06:52:13.507Z,72.77
2023-03-11T06:53:21.422Z,72.93
2023-03-11T06:55:20.449Z,72.85
2023-03-11T06:56:25.467Z,72.67
2023-03-11T06:57:27.708Z,72.75
2023-03-11T06:58:31.170Z,72.72
2023-03-11T06:59:33.713Z,72.97
2023-03-11T07:00:35.289Z,72.81
2023-03-11T07:01:40.239Z,72.80
2023-03-11T07:02:41.934Z,72.84
2023-03-11T07:03:44.818Z,73.09
2023-03-11T07:04:49.470Z,72.67
2023-03-11T07:05:52.694Z,72.82
2023-03-11T07:06:55.193Z,72.76
2023-03-11T07:07:56.844Z,72.57
2023-03-11T07:08:59.381Z,73.06
2023-03-11T07:10:01.238Z,73.29
2023-03-11T07:11:05.566Z,72.95
2023-03-11T07:12:10.289Z,73.21
2023-03-11T07:13:12.009Z,72.83
2023-03-11T07:14:14.870Z,73.08
2023-03-11T07:15:16.656Z,73.32
2023-03-11T07:16:21.508Z,73.14
2023-03-11T07:17:24.344Z,72.88
2023-03-11T07:18:25.900Z,72.79
2023-03-11T07:19:28.768Z,72.96
2023-03-11T07:20:30.539Z,73.17
2023-03-11T07:21:33.866Z,73.17
2023-03-11T07:22:35.729Z,72.96
2023-03-11T07:23:38.237Z,72.96
2023-03-11T07:24:39.740Z,73.03
2023-03-11T07:25:47.216Z,73.12
2023-03-11T07:26:48.816Z,72.83
2023-03-11T07:27:52.975Z,72.85
2023-03-11T07:28:56.540Z,72.72
2023-03-11T07:29:58.121Z,72.75
2023-03-11T07:31:01.199Z,72.73
2023-03-11T07:32:03.592Z,72.66
2023-03-11T07:33:06.305Z,72.92
2023-03-11T07:34:11.257Z,73.00
2023-03-11T07:35:14.139Z,72.65
2023-03-11T07:36:19.969Z,72.47
2023-03-11T07:37:21.696Z,72.61
2023-03-11T07:38:24.217Z,72.73
2023-03-11T07:39:25.968Z,72.86
2023-03-11T07:40:28.506Z,72.87
2023-03-11T07:41:32.117Z,72.32
2023-03-11T07:42:34.728Z,72.68
2023-03-11T07:43:39.164Z,72.74
2023-03-11T07:44:40.772Z,72.42
2023-03-11T07:45:43.380Z,72.40
2023-03-11T07:46:45.357Z,72.60
2023-03-11T07:47:47.897Z,72.71
2023-03-11T07:48:51.397Z,72.53
2023-03-11T07:49:56.298Z,72.48
2023-03-11T07:51:03.505Z,72.36
2023-03-11T07:52:07.249Z,72.21
2023-03-11T07:53:08.805Z,72.44
2023-03-11T07:54:12.556Z,72.41
2023-03-11T07:55:14.757Z,72.28
2023-03-11T07:56:18.724Z,72.31
2023-03-11T07:57:20.285Z,72.35
2023-03-11T07:58:23.580Z,72.28
2023-03-11T07:59:26.619Z,72.00
2023-03-11T08:00:29.266Z,72.10
2023-03-11T08:01:41.554Z,71.89
2023-03-11T08:02:43.535Z,71.81
2023-03-11T08:03:47.905Z,72.05
2023-03-11T08:04:49.542Z,71.82
2023-03-11T08:05:52.238Z,71.96
2023-03-11T08:07:04.920Z,72.07
2023-03-11T08:08:06.568Z,71.84
2023-03-11T08:09:10.323Z,71.91
2023-03-11T08:10:12.584Z,71.90
2023-03-11T08:11:16.637Z,71.86
2023-03-11T08:12:19.174Z,71.79
2023-03-11T08:13:21.125Z,71.76
2023-03-11T08:14:23.708Z,71.52
2023-03-11T08:15:27.749Z,71.62
2023-03-11T08:16:29.569Z,71.67
2023-03-11T08:17:32.126Z,71.56
2023-03-11T08:18:34.457Z,71.49
2023-03-11T08:19:37.167Z,71.29
2023-03-11T08:20:38.846Z,71.36
2023-03-11T08:21:41.653Z,71.31
2023-03-11T08:22:55.677Z,71.13
2023-03-11T08:24:02.221Z,70.95
2023-03-11T08:25:04.465Z,70.89
2023-03-11T08:26:09.187Z,70.92
2023-03-11T08:27:12.266Z,70.63
2023-03-11T08:28:14.999Z,70.76
2023-03-11T08:29:16.577Z,70.78
2023-03-11T08:30:19.864Z,70.60
2023-03-11T08:31:25.828Z,70.61
2023-03-11T08:32:31.425Z,70.57
2023-03-11T08:33:34.014Z,70.30
2023-03-11T08:34:36.776Z,70.56
2023-03-11T08:35:38.715Z,70.28
2023-03-11T08:36:41.632Z,70.18
2023-03-11T08:37:43.426Z,70.24
2023-03-11T08:38:46.355Z,70.32
2023-03-11T08:39:48.908Z,70.17
2023-03-11T08:40:50.618Z,69.83
2023-03-11T08:41:53.145Z,69.63
2023-03-11T08:42:56.530Z,69.55
2023-03-11T08:43:58.339Z,69.48
2023-03-11T08:45:01.075Z,69.40
2023-03-11T08:46:04.423Z,69.44
2023-03-11T08:47:08.556Z,69.21
2023-03-11T08:48:11.735Z,68.92
2023-03-11T08:49:14.296Z,68.87
2023-03-11T08:50:24.200Z,68.69
2023-03-11T08:51:26.635Z,68.63
2023-03-11T08:52:29.249Z,68.42
2023-03-11T08:53:30.895Z,68.21
2023-03-11T08:54:33.729Z,68.05
2023-03-11T08:55:35.569Z,68.10
2023-03-11T08:56:38.142Z,67.73
2023-03-11T08:57:41.126Z,67.61
2023-03-11T08:58:42.890Z,67.39
2023-03-11T08:59:45.809Z,67.12
2023-03-11T09:00:47.643Z,66.87
2023-03-11T09:01:50.887Z,66.54
2023-03-11T09:02:53.897Z,66.24
2023-03-11T09:03:56.744Z,66.30
2023-03-11T09:04:58.504Z,65.92
2023-03-11T09:06:01.892Z,65.90
2023-03-11T09:07:04.666Z,65.90
2023-03-11T09:08:07.255Z,65.48
2023-03-11T09:09:11.500Z,65.80
2023-03-11T09:10:16.079Z,65.17
2023-03-11T09:11:19.564Z,65.27
2023-03-11T09:12:21.271Z,65.17
2023-03-11T09:13:24.327Z,65.02
2023-03-11T09:14:28.872Z,65.22
2023-03-11T09:15:31.597Z,65.13
2023-03-11T09:16:34.442Z,64.75
2023-03-11T09:17:37.483Z,64.87
2023-03-11T09:18:40.473Z,64.49
2023-03-11T09:19:43.056Z,64.31
2023-03-11T09:20:46.051Z,63.90
2023-03-11T09:21:49.035Z,63.50
2023-03-11T09:22:50.936Z,63.15
2023-03-11T09:23:53.480Z,63.05
2023-03-11T09:24:56.823Z,62.74
2023-03-11T09:25:59.332Z,62.82
2023-03-11T09:27:01.117Z,62.53
2023-03-11T09:28:04.523Z,62.02
2023-03-11T09:29:07.089Z,61.90
2023-03-11T09:30:12.412Z,61.59
2023-03-11T09:31:16.432Z,60.63
2023-03-11T09:32:18.143Z,60.68
2023-03-11T09:33:20.738Z,60.52
2023-03-11T09:34:24.081Z,60.25
2023-03-11T09:35:26.720Z,60.20
2023-03-11T09:36:29.415Z,59.98
2023-03-11T09:37:31.124Z,59.34
2023-03-11T09:38:33.789Z,59.18
2023-03-11T09:39:35.341Z,59.23
2023-03-11T09:40:52.446Z,58.65
2023-03-11T09:41:59.240Z,58.82
2023-03-11T09:43:12.524Z,58.74
2023-03-11T09:44:19.956Z,58.62
2023-03-11T09:45:26.183Z,58.64
2023-03-11T09:46:49.032Z,58.42
2023-03-11T09:48:07.429Z,58.41
2023-03-11T09:49:19.305Z,58.01
2023-03-11T09:50:28.943Z,57.83
2023-03-11T09:51:36.095Z,57.80
2023-03-11T09:52:44.110Z,57.32
2023-03-11T09:53:51.344Z,57.31
2023-03-11T09:54:58.033Z,56.65
2023-03-11T09:56:03.565Z,56.64
2023-03-11T09:57:07.971Z,56.18
2023-03-11T09:58:13.484Z,56.31
2023-03-11T09:59:20.501Z,56.04
2023-03-11T10:00:24.627Z,55.51
2023-03-11T10:01:46.328Z,55.19
2023-03-11T10:02:49.246Z,55.40
2023-03-11T10:03:54.487Z,55.36
2023-03-11T10:04:59.708Z,54.89
2023-03-11T10:06:16.153Z,54.99
2023-03-11T10:07:28.165Z,54.86
2023-03-11T10:08:39.032Z,54.87
2023-03-11T10:09:49.024Z,54.54
2023-03-11T10:11:00.121Z,54.26
2023-03-11T10:12:18.070Z,54.32
2023-03-11T10:13:30.322Z,54.14
2023-03-11T10:14:44.440Z,54.05
2023-03-11T10:15:53.570Z,53.83
2023-03-11T10:17:02.382Z,53.67
2023-03-11T10:18:26.545Z,53.59
2023-03-11T10:19:40.704Z,53.44
2023-03-11T10:20:49.714Z,53.73
2023-03-11T10:22:03.331Z,53.43
2023-03-11T10:23:16.131Z,53.36
2023-03-11T10:24:36.757Z,52.80
2023-03-11T10:25:50.825Z,52.55
2023-03-11T10:26:58.837Z,52.60
2023-03-11T10:28:05.473Z,52.56
2023-03-11T10:29:15.172Z,52.43
2023-03-11T10:30:26.223Z,52.54
2023-03-11T10:31:32.021Z,52.04
2023-03-11T10:32:41.864Z,52.22
2023-03-11T10:33:48.632Z,52.21
2023-03-11T10:34:54.815Z,51.96
2023-03-11T10:36:03.952Z,51.99
2023-03-11T10:37:14.236Z,51.56
2023-03-11T10:38:20.749Z,51.61
2023-03-11T10:39:23.425Z,51.54
2023-03-11T10:40:31.273Z,51.34
2023-03-11T10:41:44.422Z,51.62
2023-03-11T10:42:47.020Z,51.32
2023-03-11T10:43:53.655Z,51.73
2023-03-11T10:44:56.231Z,51.48
2023-03-11T10:46:00.205Z,51.36
2023-03-11T10:47:02.637Z,51.17
2023-03-11T10:48:10.894Z,51.05
2023-03-11T10:49:14.798Z,50.99
2023-03-11T10:50:20.431Z,50.74
2023-03-11T10:51:24.867Z,50.66
2023-03-11T10:52:29.044Z,50.46
2023-03-11T10:53:32.359Z,50.06
2023-03-11T10:54:37.810Z,50.02
2023-03-11T10:55:48.420Z,49.61
2023-03-11T10:56:54.531Z,49.98
2023-03-11T10:58:06.581Z,49.56
2023-03-11T10:59:25.224Z,49.34
2023-03-11T11:00:30.125Z,49.15
2023-03-11T11:01:34.513Z,48.89
2023-03-11T11:02:43.253Z,48.76
2023-03-11T11:03:49.052Z,49.09
2023-03-11T11:05:05.575Z,48.82
2023-03-11T11:06:22.239Z,48.90
2023-03-11T11:07:33.350Z,48.57
2023-03-11T11:08:36.594Z,48.38
2023-03-11T11:09:38.128Z,48.48
2023-03-11T11:10:51.363Z,48.06
2023-03-11T11:12:06.465Z,47.90
2023-03-11T11:13:20.618Z,47.95
2023-03-11T11:14:23.817Z,48.27
2023-03-11T11:15:28.454Z,48.28
2023-03-11T11:16:31.216Z,48.26
2023-03-11T11:17:34.271Z,47.83
2023-03-11T11:18:43.599Z,47.63
2023-03-11T11:19:57.915Z,47.63
2023-03-11T11:21:04.462Z,47.29
2023-03-11T11:22:06.484Z,47.39
2023-03-11T11:23:27.211Z,47.31
2023-03-11T11:24:30.795Z,47.22
2023-03-11T11:25:35.757Z,47.49
2023-03-11T11:26:37.338Z,46.76
2023-03-11T11:27:56.634Z,47.13
2023-03-11T11:29:09.129Z,47.34
2023-03-11T11:30:16.572Z,47.19
2023-03-11T11:31:25.133Z,47.00
2023-03-11T11:32:27.077Z,47.05
2023-03-11T11:33:31.226Z,46.84
2023-03-11T11:34:34.830Z,47.24
2023-03-11T11:35:51.500Z,46.99
2023-03-11T11:36:53.293Z,47.27
2023-03-11T11:38:01.992Z,47.10
2023-03-11T11:39:16.828Z,47.24
2023-03-11T11:40:31.337Z,47.21
2023-03-11T11:41:36.445Z,47.28
2023-03-11T11:42:41.003Z,47.52
2023-03-11T11:43:50.203Z,47.50
2023-03-11T11:44:56.764Z,47.62
2023-03-11T11:46:06.036Z,47.17
2023-03-11T11:47:15.784Z,47.71
2023-03-11T11:48:22.045Z,47.27
2023-03-11T11:49:27.413Z,47.59
2023-03-11T11:50:35.378Z,47.37
2023-03-11T11:51:41.455Z,47.70
2023-03-11T11:52:48.276Z,48.00
2023-03-11T11:53:57.541Z,47.92
2023-03-11T11:55:03.912Z,47.60
2023-03-11T11:56:06.700Z,47.77
2023-03-11T11:57:11.910Z,47.76
2023-03-11T11:58:14.445Z,47.68
2023-03-11T11:59:18.837Z,47.94
2023-03-11T12:00:25.241Z,47.63
2023-03-11T12:01:42.129Z,47.90
2023-03-11T12:02:59.130Z,47.67
2023-03-11T12:04:20.026Z,47.73
2023-03-11T12:05:27.848Z,47.94
2023-03-11T12:06:35.316Z,47.67
2023-03-11T12:07:56.337Z,47.58
2023-03-11T12:09:08.330Z,47.99
2023-03-11T12:10:28.294Z,47.41
2023-03-11T12:11:39.331Z,47.61
2023-03-11T12:12:52.773Z,47.71
2023-03-11T12:14:06.799Z,47.92
2023-03-11T12:15:15.075Z,47.72
2023-03-11T12:16:29.032Z,47.68
2023-03-11T12:17:33.541Z,47.65
2023-03-11T12:18:38.249Z,47.37
2023-03-11T12:19:46.486Z,47.61
2023-03-11T12:20:53.585Z,47.52
2023-03-11T12:22:23.303Z,47.46
2023-03-11T12:23:41.558Z,47.33
2023-03-11T12:24:57.355Z,47.15
2023-03-11T12:26:14.615Z,46.87
2023-03-11T12:27:22.398Z,46.97
2023-03-11T12:28:32.432Z,46.95
2023-03-11T12:29:38.094Z,46.31
2023-03-11T12:30:44.915Z,46.42
2023-03-11T12:31:48.241Z,46.37
2023-03-11T12:32:54.198Z,46.19
2023-03-11T12:33:59.059Z,46.06
2023-03-11T12:35:04.516Z,45.77
2023-03-11T12:36:10.197Z,46.05
2023-03-11T12:37:14.619Z,46.15
2023-03-11T12:38:29.614Z,45.75
2023-03-11T12:39:34.582Z,45.65
2023-03-11T12:40:56.212Z,45.76
2023-03-11T12:42:21.498Z,46.15
2023-03-11T12:44:11.525Z,46.17
2023-03-11T12:45:50.874Z,46.58
2023-03-11T12:47:20.171Z,46.29
2023-03-11T12:48:37.832Z,46.74
2023-03-11T12:49:40.727Z,46.53
2023-03-11T12:50:44.569Z,46.45
2023-03-11T12:52:01.662Z,46.16
2023-03-11T12:53:04.436Z,46.54
2023-03-11T12:54:29.577Z,46.86
2023-03-11T12:55:35.468Z,46.33
2023-03-11T12:56:40.842Z,46.39
2023-03-11T12:57:55.131Z,46.75
2023-03-11T12:59:24.276Z,46.77
2023-03-11T13:00:45.516Z,46.61
2023-03-11T13:02:12.724Z,46.73
2023-03-11T13:03:37.202Z,46.46
2023-03-11T13:04:50.272Z,46.63
2023-03-11T13:05:59.186Z,46.65
2023-03-11T13:07:31.510Z,46.76
2023-03-11T13:08:46.686Z,46.70
2023-03-11T13:10:02.090Z,46.74
2023-03-11T13:11:29.458Z,47.10
2023-03-11T13:12:43.877Z,46.70
2023-03-11T13:13:47.270Z,46.67
2023-03-11T13:14:49.939Z,46.65
2023-03-11T13:15:51.930Z,46.86
2023-03-11T13:16:55.064Z,46.78
2023-03-11T13:18:01.407Z,46.78
2023-03-11T13:19:37.111Z,46.87
2023-03-11T13:20:57.955Z,46.97
2023-03-11T13:22:01.670Z,46.58
2023-03-11T13:23:23.229Z,47.03
2023-03-11T13:24:49.527Z,47.01
2023-03-11T13:26:11.426Z,47.47
2023-03-11T13:27:27.609Z,47.39
2023-03-11T13:28:50.069Z,47.17
2023-03-11T13:30:01.240Z,47.88
2023-03-11T13:31:18.934Z,47.65
2023-03-11T13:32:42.601Z,47.27
2023-03-11T13:33:55.421Z,47.49
2023-03-11T13:35:09.127Z,47.38
2023-03-11T13:36:22.452Z,47.37
2023-03-11T13:37:37.517Z,47.35
2023-03-11T13:38:48.413Z,47.53
2023-03-11T13:39:58.400Z,47.80
2023-03-11T13:41:01.392Z,47.62
2023-03-11T13:42:05.605Z,47.37
2023-03-11T13:43:14.122Z,47.63
2023-03-11T13:44:25.864Z,47.56
2023-03-11T13:45:31.576Z,47.55
2023-03-11T13:46:38.325Z,47.56
2023-03-11T13:47:46.131Z,47.30
2023-03-11T13:48:50.482Z,47.62
2023-03-11T13:49:59.399Z,47.94
2023-03-11T13:51:05.281Z,47.90
2023-03-11T13:52:13.614Z,47.96
2023-03-11T13:53:19.781Z,47.96
2023-03-11T13:54:37.274Z,47.86
2023-03-11T13:55:42.551Z,48.37
2023-03-11T13:56:49.078Z,48.06
2023-03-11T13:57:53.185Z,47.71
2023-03-11T13:58:55.741Z,48.10
2023-03-11T14:00:05.867Z,47.71
2023-03-11T14:01:18.140Z,48.01
2023-03-11T14:02:23.034Z,47.92
2023-03-11T14:03:29.389Z,48.15
2023-03-11T14:04:33.392Z,48.08